createdAt,value
2022-11-30T00:08:56.143Z,0
2022-11-30T00:18:33.230Z,0
2022-11-30T00:28:10.106Z,0
2022-11-30T00:37:47.216Z,0
2022-11-30T00:47:23.949Z,0
2022-11-30T00:57:00.804Z,0
2022-11-30T01:06:37.518Z,0
2022-11-30T01:16:14.591Z,0
2022-11-30T01:25:51.681Z,0
2022-11-30T01:35:28.768Z,0
2022-11-30T01:45:05.718Z,0
2022-11-30T01:54:42.849Z,0
2022-11-30T02:04:19.882Z,0
2022-11-30T02:13:56.915Z,0
2022-11-30T02:23:37.991Z,0
2022-11-30T02:33:10.764Z,0
2022-11-30T02:42:47.962Z,0
2022-11-30T02:52:24.805Z,0
2022-11-30T03:02:02.028Z,0
2022-11-30T03:11:38.618Z,0
2022-11-30T03:21:15.650Z,0
2022-11-30T03:30:52.521Z,0
2022-11-30T03:40:28.973Z,0
2022-11-30T03:50:05.482Z,0
2022-11-30T03:59:42.298Z,0
2022-11-30T04:09:19.354Z,0
2022-11-30T04:18:56.248Z,0
2022-11-30T04:28:35.208Z,0
2022-11-30T04:38:11.773Z,0.83
2022-11-30T04:47:48.824Z,0
2022-11-30T04:57:25.832Z,0
2022-11-30T05:07:02.810Z,0
2022-11-30T05:16:39.580Z,0
2022-11-30T05:26:18.787Z,0
2022-11-30T05:35:54.310Z,0
2022-11-30T05:45:31.365Z,0
2022-11-30T05:55:09.885Z,0
2022-11-30T06:04:45.786Z,0
2022-11-30T06:14:22.294Z,0
2022-11-30T06:23:59.149Z,0.83
2022-11-30T06:33:36.190Z,2.5
2022-11-30T06:43:13.020Z,6.67
2022-11-30T06:52:50.013Z,20
2022-11-30T07:02:27.433Z,48.33
2022-11-30T07:12:04.459Z,105
2022-11-30T07:21:41.797Z,193.33
2022-11-30T07:31:19.411Z,316.67
2022-11-30T07:40:57.010Z,534.17
2022-11-30T07:50:34.530Z,602.5
2022-11-30T08:09:49.516Z,571.67
2022-11-30T08:19:26.893Z,616.67
2022-11-30T08:29:06.297Z,661.67
2022-11-30T08:38:42.247Z,705
2022-11-30T08:48:18.965Z,787.5
2022-11-30T09:07:32.502Z,834.17
2022-11-30T09:17:09.536Z,880
2022-11-30T09:26:46.816Z,925
2022-11-30T09:36:23.997Z,963.33
2022-11-30T09:46:01.799Z,1019.17
2022-11-30T09:55:39.043Z,1055.83
2022-11-30T10:05:16.260Z,1096.67
2022-11-30T10:14:57.206Z,1097.5
2022-11-30T10:24:30.852Z,1085
2022-11-30T10:34:08.640Z,1046.67
2022-11-30T10:43:45.494Z,1069.17
2022-11-30T11:02:59.495Z,942.5
2022-11-30T11:12:36.485Z,945
2022-11-30T11:22:13.627Z,971.67
2022-11-30T11:31:50.791Z,1006.67
2022-11-30T11:41:28.006Z,1092.5
2022-11-30T11:51:06.981Z,1141.67
2022-11-30T12:00:42.244Z,1161.67
2022-11-30T12:10:49.786Z,1165
2022-11-30T12:19:56.924Z,1135
2022-11-30T12:29:34.136Z,1225
2022-11-30T12:39:11.377Z,1257.5
2022-11-30T12:58:26.165Z,1173.33
2022-11-30T13:08:03.348Z,1116.67
2022-11-30T13:17:39.899Z,668.33
2022-11-30T13:27:16.523Z,716.67
2022-11-30T13:36:54.250Z,686.67
2022-11-30T13:56:07.398Z,614.17
2022-11-30T14:05:44.329Z,700
2022-11-30T14:15:21.617Z,525.83
2022-11-30T14:24:58.414Z,319.17
2022-11-30T14:34:35.200Z,205.83
2022-11-30T14:44:12.330Z,106.67
2022-11-30T14:53:48.953Z,57.5
2022-11-30T15:03:25.872Z,26.67
2022-11-30T15:13:02.931Z,15
2022-11-30T15:22:40.861Z,5.83
2022-11-30T15:32:16.696Z,1.67
2022-11-30T15:41:53.614Z,0
2022-11-30T15:51:30.724Z,0
2022-11-30T16:01:07.626Z,0
2022-11-30T16:10:44.697Z,0
2022-11-30T16:20:21.527Z,0
2022-11-30T16:29:58.875Z,0
2022-11-30T16:39:35.348Z,0
2022-11-30T16:49:12.406Z,0
2022-11-30T16:58:49.438Z,0
2022-11-30T17:08:26.360Z,0
2022-11-30T17:18:03.393Z,0
2022-11-30T17:27:40.371Z,0
2022-11-30T17:37:17.719Z,0
2022-11-30T17:46:54.732Z,0
2022-11-30T17:56:31.598Z,0
2022-11-30T18:06:08.493Z,0
2022-11-30T18:15:45.006Z,0
2022-11-30T18:25:22.206Z,0
2022-11-30T18:34:59.203Z,0
2022-11-30T18:44:35.679Z,0
2022-11-30T18:54:12.224Z,0
2022-11-30T19:03:49.111Z,0
2022-11-30T19:13:26.205Z,0
2022-11-30T19:23:03.129Z,0
2022-11-30T19:32:39.410Z,0
2022-11-30T19:42:15.922Z,0
2022-11-30T19:51:52.817Z,0
2022-11-30T20:01:29.512Z,0
2022-11-30T20:11:06.162Z,0
2022-11-30T20:20:43.104Z,0
2022-11-30T20:30:20.051Z,0
2022-11-30T20:39:57.546Z,0
2022-11-30T20:49:33.641Z,0
2022-11-30T20:59:10.027Z,0
2022-11-30T21:08:46.856Z,0
2022-11-30T21:18:23.446Z,0
2022-11-30T21:28:00.314Z,0
2022-11-30T21:37:37.224Z,0
2022-11-30T21:47:14.205Z,0
2022-11-30T21:56:51.155Z,0
2022-11-30T22:06:27.564Z,0
2022-11-30T22:16:04.737Z,0
2022-11-30T22:35:18.031Z,0
2022-11-30T22:44:54.505Z,0
2022-11-30T22:54:31.238Z,0
2022-11-30T23:04:07.898Z,0
2022-11-30T23:13:43.963Z,0
2022-11-30T23:23:20.696Z,0
2022-11-30T23:32:57.461Z,0
2022-11-30T23:42:34.427Z,0
2022-11-30T23:52:11.235Z,0
